createdAt,value
2023-02-28T00:04:06.822Z,2.60
2023-02-28T00:09:08.477Z,2.70
2023-02-28T00:14:10.105Z,2.42
2023-02-28T00:19:14.346Z,2.42
2023-02-28T00:24:15.952Z,3.17
2023-02-28T00:29:17.606Z,2.42
2023-02-28T00:34:19.662Z,2.25
2023-02-28T00:39:22.464Z,2.00
2023-02-28T00:44:24.053Z,2.22
2023-02-28T00:49:26.717Z,2.60
2023-02-28T00:54:28.506Z,3.03
2023-02-28T00:59:31.292Z,3.00
2023-02-28T01:04:32.952Z,2.30
2023-02-28T01:09:36.606Z,2.90
2023-02-28T01:14:39.902Z,2.58
2023-02-28T01:19:41.582Z,2.58
2023-02-28T01:24:45.132Z,2.50
2023-02-28T01:29:48.044Z,2.17
2023-02-28T01:34:51.150Z,2.60
2023-02-28T01:39:52.788Z,2.45
2023-02-28T01:45:00.878Z,2.13
2023-02-28T01:50:06.926Z,2.60
2023-02-28T01:55:11.033Z,2.53
2023-02-28T02:00:16.342Z,2.60
2023-02-28T02:05:27.185Z,2.53
2023-02-28T02:10:34.475Z,2.75
2023-02-28T02:15:47.360Z,2.95
2023-02-28T02:21:01.355Z,2.63
2023-02-28T02:26:02.923Z,2.22
2023-02-28T02:31:23.339Z,2.22
2023-02-28T02:41:54.520Z,2.30
2023-02-28T02:47:00.749Z,2.20
2023-02-28T02:52:07.441Z,2.50
2023-02-28T02:57:18.494Z,2.40
2023-02-28T03:02:23.037Z,2.28
2023-02-28T03:07:24.709Z,2.88
2023-02-28T03:12:42.256Z,2.58
2023-02-28T03:17:49.011Z,2.75
2023-02-28T03:23:17.671Z,2.15
2023-02-28T03:28:29.011Z,2.63
2023-02-28T03:33:39.958Z,2.50
2023-02-28T03:38:48.069Z,3.22
2023-02-28T03:43:59.910Z,2.42
2023-02-28T03:49:10.470Z,2.30
2023-02-28T03:54:21.067Z,2.78
2023-02-28T03:59:31.996Z,3.20
2023-02-28T04:04:35.155Z,2.47
2023-02-28T04:09:36.865Z,2.97
2023-02-28T04:14:38.590Z,2.85
2023-02-28T04:19:40.296Z,3.45
2023-02-28T04:24:42.515Z,3.30
2023-02-28T04:29:45.622Z,3.15
2023-02-28T04:34:47.275Z,3.25
2023-02-28T04:39:48.920Z,3.33
2023-02-28T04:44:50.605Z,3.80
2023-02-28T04:49:52.203Z,3.67
2023-02-28T04:54:53.855Z,3.63
2023-02-28T04:59:55.497Z,3.90
2023-02-28T05:04:57.225Z,4.22
2023-02-28T05:09:58.948Z,3.75
2023-02-28T05:15:02.148Z,3.78
2023-02-28T05:20:14.967Z,4.35
2023-02-28T05:25:25.257Z,4.43
2023-02-28T05:30:26.878Z,4.40
2023-02-28T05:35:28.544Z,4.22
2023-02-28T05:40:30.132Z,4.85
2023-02-28T05:45:31.784Z,5.45
2023-02-28T05:50:33.478Z,4.68
2023-02-28T05:55:36.974Z,5.15
2023-02-28T06:00:39.807Z,4.57
2023-02-28T06:05:43.143Z,3.85
2023-02-28T06:10:45.056Z,3.50
2023-02-28T06:15:46.692Z,3.47
2023-02-28T06:20:55.863Z,3.95
2023-02-28T06:25:59.370Z,3.73
2023-02-28T06:31:06.071Z,4.25
2023-02-28T06:36:09.870Z,4.72
2023-02-28T06:41:11.993Z,5.18
2023-02-28T06:46:15.175Z,5.75
2023-02-28T06:51:21.260Z,5.57
2023-02-28T06:56:23.137Z,6.95
2023-02-28T07:01:25.359Z,6.53
2023-02-28T07:06:27.095Z,7.43
2023-02-28T07:11:29.643Z,6.85
2023-02-28T07:16:31.528Z,7.20
2023-02-28T07:21:33.215Z,7.47
2023-02-28T07:26:37.536Z,7.80
2023-02-28T07:31:39.358Z,9.65
2023-02-28T07:36:41.093Z,8.13
2023-02-28T07:41:44.597Z,8.70
2023-02-28T07:46:46.337Z,8.35
2023-02-28T07:51:48.283Z,7.10
2023-02-28T07:56:49.964Z,7.18
2023-02-28T08:01:51.793Z,6.35
2023-02-28T08:06:54.071Z,5.80
2023-02-28T08:11:55.690Z,5.95
2023-02-28T08:16:57.330Z,4.97
2023-02-28T08:21:59.296Z,4.30
2023-02-28T08:27:00.946Z,5.20
2023-02-28T08:32:02.672Z,4.20
2023-02-28T08:37:04.412Z,5.43
2023-02-28T08:42:07.735Z,5.47
2023-02-28T08:47:09.956Z,4.75
2023-02-28T08:52:11.806Z,4.85
2023-02-28T08:57:13.442Z,4.90
2023-02-28T09:02:15.480Z,5.35
2023-02-28T09:07:17.169Z,6.05
2023-02-28T09:12:18.763Z,5.03
2023-02-28T09:17:21.137Z,4.72
2023-02-28T09:22:22.753Z,5.00
2023-02-28T09:27:24.361Z,4.90
2023-02-28T09:32:26.139Z,5.18
2023-02-28T09:37:30.318Z,5.90
2023-02-28T09:42:35.017Z,5.63
2023-02-28T09:47:47.744Z,5.35
2023-02-28T09:52:51.090Z,4.65
2023-02-28T09:57:53.860Z,4.88
2023-02-28T10:03:05.179Z,5.15
2023-02-28T10:08:15.353Z,5.28
2023-02-28T10:18:28.772Z,4.50
2023-02-28T10:23:36.803Z,4.75
2023-02-28T10:28:38.446Z,5.03
2023-02-28T10:33:40.640Z,6.00
2023-02-28T10:38:42.246Z,5.65
2023-02-28T10:43:46.218Z,4.90
2023-02-28T10:49:23.373Z,5.50
2023-02-28T10:54:38.770Z,5.47
2023-02-28T10:59:40.396Z,4.05
2023-02-28T11:04:42.785Z,4.50
2023-02-28T11:09:50.163Z,3.58
2023-02-28T11:14:59.110Z,3.30
2023-02-28T11:20:04.839Z,3.80
2023-02-28T11:25:18.829Z,2.58
2023-02-28T11:30:30.047Z,2.95
2023-02-28T11:35:37.372Z,2.70
2023-02-28T11:41:00.931Z,2.80
2023-02-28T11:46:34.913Z,3.05
2023-02-28T11:52:01.595Z,2.42
2023-02-28T11:57:53.216Z,2.40
2023-02-28T12:08:16.277Z,2.38
2023-02-28T12:13:25.051Z,2.00
2023-02-28T12:18:48.072Z,2.10
2023-02-28T12:23:59.563Z,2.22
2023-02-28T12:29:26.156Z,3.72
2023-02-28T12:34:32.924Z,2.42
2023-02-28T12:39:49.811Z,1.95
2023-02-28T12:45:00.353Z,2.55
2023-02-28T12:50:12.595Z,2.30
2023-02-28T12:55:39.518Z,2.20
2023-02-28T13:01:11.810Z,2.10
2023-02-28T13:06:39.098Z,2.47
2023-02-28T13:11:46.344Z,2.67
2023-02-28T13:17:08.280Z,2.50
2023-02-28T13:22:57.426Z,2.70
2023-02-28T13:28:01.898Z,2.67
2023-02-28T13:33:25.276Z,3.00
2023-02-28T13:38:38.085Z,3.40
2023-02-28T13:44:12.644Z,2.42
2023-02-28T13:49:24.015Z,2.30
2023-02-28T13:54:29.940Z,2.63
2023-02-28T14:00:07.316Z,3.10
2023-02-28T14:05:12.992Z,3.00
2023-02-28T14:10:27.326Z,3.47
2023-02-28T14:15:45.844Z,3.20
2023-02-28T14:20:49.931Z,3.95
2023-02-28T14:26:14.572Z,3.10
2023-02-28T14:31:18.775Z,3.53
2023-02-28T14:36:28.895Z,3.22
2023-02-28T14:41:40.421Z,3.67
2023-02-28T14:46:44.108Z,2.97
2023-02-28T14:51:48.406Z,2.90
2023-02-28T14:56:51.234Z,2.20
2023-02-28T15:01:53.069Z,3.20
2023-02-28T15:07:16.400Z,2.70
2023-02-28T15:12:18.020Z,2.60
2023-02-28T15:17:25.626Z,2.53
2023-02-28T15:22:37.069Z,3.08
2023-02-28T15:27:46.522Z,3.42
2023-02-28T15:33:09.348Z,2.70
2023-02-28T15:38:24.661Z,2.58
2023-02-28T15:43:33.293Z,3.25
2023-02-28T15:48:48.574Z,2.85
2023-02-28T15:53:58.543Z,2.83
2023-02-28T15:59:06.880Z,2.70
2023-02-28T16:04:19.947Z,3.13
2023-02-28T16:09:21.603Z,3.00
2023-02-28T16:14:25.586Z,2.75
2023-02-28T16:19:27.199Z,2.80
2023-02-28T16:24:29.073Z,4.18
2023-02-28T16:29:37.560Z,3.28
2023-02-28T16:34:39.136Z,3.00
2023-02-28T16:39:42.497Z,3.50
2023-02-28T16:44:44.350Z,3.70
2023-02-28T16:49:46.065Z,3.22
2023-02-28T16:54:47.758Z,4.85
2023-02-28T16:59:51.878Z,3.13
2023-02-28T17:04:53.562Z,4.57
2023-02-28T17:09:55.163Z,3.80
2023-02-28T17:14:56.752Z,3.50
2023-02-28T17:19:58.325Z,3.70
2023-02-28T17:24:59.944Z,3.67
2023-02-28T17:30:01.977Z,4.53
2023-02-28T17:35:03.639Z,4.55
2023-02-28T17:40:06.449Z,6.07
2023-02-28T17:45:08.838Z,3.83
2023-02-28T17:50:16.976Z,5.47
2023-02-28T17:55:20.029Z,4.85
2023-02-28T18:00:24.870Z,6.18
2023-02-28T18:05:26.781Z,9.68
2023-02-28T18:10:28.483Z,6.57
2023-02-28T18:15:30.481Z,6.95
2023-02-28T18:20:32.029Z,6.25
2023-02-28T18:25:33.657Z,5.65
2023-02-28T18:30:37.702Z,8.75
2023-02-28T18:35:39.942Z,28.10
2023-02-28T18:40:43.011Z,16.98
2023-02-28T18:45:44.663Z,16.30
2023-02-28T18:50:47.210Z,17.58
2023-02-28T18:55:48.869Z,15.75
2023-02-28T19:00:50.561Z,19.75
2023-02-28T19:05:56.835Z,16.77
2023-02-28T19:10:58.413Z,8.65
2023-02-28T19:16:07.221Z,7.15
2023-02-28T19:21:11.288Z,10.70
2023-02-28T19:26:31.336Z,8.63
2023-02-28T19:31:33.696Z,9.57
2023-02-28T19:36:35.745Z,8.40
2023-02-28T19:41:37.561Z,8.88
2023-02-28T19:46:39.323Z,9.73
2023-02-28T19:51:41.268Z,11.38
2023-02-28T19:56:42.874Z,11.90
2023-02-28T20:01:44.444Z,12.05
2023-02-28T20:06:46.105Z,14.90
2023-02-28T20:11:48.250Z,13.93
2023-02-28T20:16:49.881Z,10.95
2023-02-28T20:21:51.534Z,11.77
2023-02-28T20:26:53.625Z,12.05
2023-02-28T20:31:55.866Z,10.65
2023-02-28T20:36:58.742Z,9.98
2023-02-28T20:42:00.384Z,10.45
2023-02-28T20:47:02.098Z,9.77
2023-02-28T20:52:03.769Z,10.10
2023-02-28T20:57:05.402Z,11.80
2023-02-28T21:02:07.456Z,11.85
2023-02-28T21:07:09.095Z,11.38
2023-02-28T21:12:10.774Z,10.95
2023-02-28T21:17:12.468Z,12.07
2023-02-28T21:22:14.066Z,12.15
2023-02-28T21:27:16.393Z,17.77
2023-02-28T21:32:18.464Z,20.88
2023-02-28T21:37:20.442Z,20.52
2023-02-28T21:42:22.162Z,21.23
2023-02-28T21:47:24.187Z,20.70
2023-02-28T21:52:25.917Z,18.50
2023-02-28T21:57:27.643Z,18.33
2023-02-28T22:02:30.366Z,14.95
2023-02-28T22:07:32.105Z,14.80
2023-02-28T22:12:33.755Z,13.35
2023-02-28T22:17:35.386Z,13.13
2023-02-28T22:22:37.039Z,14.80
2023-02-28T22:27:38.639Z,13.02
2023-02-28T22:32:40.513Z,12.98
2023-02-28T22:37:42.135Z,11.85
2023-02-28T22:42:43.813Z,11.85
2023-02-28T22:47:48.797Z,11.68
2023-02-28T22:52:50.470Z,10.75
2023-02-28T22:57:52.924Z,9.85
2023-02-28T23:02:54.552Z,10.45
2023-02-28T23:07:56.295Z,10.32
2023-02-28T23:12:57.876Z,10.35
2023-02-28T23:17:59.493Z,10.48
2023-02-28T23:23:01.082Z,9.70
2023-02-28T23:28:02.732Z,10.07
2023-02-28T23:33:06.453Z,9.48
2023-02-28T23:38:08.086Z,9.60
2023-02-28T23:43:09.766Z,9.35
2023-02-28T23:48:11.752Z,9.23
2023-02-28T23:53:13.841Z,10.15
2023-02-28T23:58:15.548Z,10.38
